sensor_id;sensor_type;location;lat;lon;timestamp;temperature;humidity
28552;DHT22;15752;49.560;8.708;2023-04-30T00:00:22;15.60;99.90
28552;DHT22;15752;49.560;8.708;2023-04-30T00:02:51;15.60;99.90
28552;DHT22;15752;49.560;8.708;2023-04-30T00:05:21;15.70;99.90
28552;DHT22;15752;49.560;8.708;2023-04-30T00:07:51;15.60;99.90
28552;DHT22;15752;49.560;8.708;2023-04-30T00:10:23;15.60;99.90
28552;DHT22;15752;49.560;8.708;2023-04-30T00:12:55;15.50;99.90
28552;DHT22;15752;49.560;8.708;2023-04-30T00:15:26;15.60;99.90
28552;DHT22;15752;49.560;8.708;2023-04-30T00:17:56;15.70;99.90
28552;DHT22;15752;49.560;8.708;2023-04-30T00:20:25;15.60;99.90
28552;DHT22;15752;49.560;8.708;2023-04-30T00:22:54;15.60;99.90
28552;DHT22;15752;49.560;8.708;2023-04-30T00:25:25;15.60;99.90
28552;DHT22;15752;49.560;8.708;2023-04-30T00:27:55;15.60;99.90
28552;DHT22;15752;49.560;8.708;2023-04-30T00:30:24;15.60;99.90
28552;DHT22;15752;49.560;8.708;2023-04-30T00:32:53;15.60;99.90
28552;DHT22;15752;49.560;8.708;2023-04-30T00:35:22;15.60;99.90
28552;DHT22;15752;49.560;8.708;2023-04-30T00:37:51;15.60;99.90
28552;DHT22;15752;49.560;8.708;2023-04-30T00:40:19;15.60;99.90
28552;DHT22;15752;49.560;8.708;2023-04-30T00:42:50;15.60;99.90
28552;DHT22;15752;49.560;8.708;2023-04-30T00:45:22;15.60;99.90
28552;DHT22;15752;49.560;8.708;2023-04-30T00:47:55;15.60;99.90
28552;DHT22;15752;49.560;8.708;2023-04-30T00:50:24;15.50;99.90
28552;DHT22;15752;49.560;8.708;2023-04-30T00:52:55;15.50;99.90
28552;DHT22;15752;49.560;8.708;2023-04-30T00:55:25;15.50;99.90
28552;DHT22;15752;49.560;8.708;2023-04-30T00:57:56;15.50;99.90
28552;DHT22;15752;49.560;8.708;2023-04-30T01:00:26;15.50;99.90
28552;DHT22;15752;49.560;8.708;2023-04-30T01:02:55;15.50;99.90
28552;DHT22;15752;49.560;8.708;2023-04-30T01:05:32;15.50;99.90
28552;DHT22;15752;49.560;8.708;2023-04-30T01:08:03;15.50;99.90
28552;DHT22;15752;49.560;8.708;2023-04-30T01:10:38;15.50;99.90
28552;DHT22;15752;49.560;8.708;2023-04-30T01:13:16;15.50;99.90
28552;DHT22;15752;49.560;8.708;2023-04-30T01:15:55;15.50;99.90
28552;DHT22;15752;49.560;8.708;2023-04-30T01:18:30;15.50;99.90
28552;DHT22;15752;49.560;8.708;2023-04-30T01:21:04;15.50;99.90
28552;DHT22;15752;49.560;8.708;2023-04-30T01:23:52;15.40;99.90
28552;DHT22;15752;49.560;8.708;2023-04-30T01:26:37;15.50;99.90
28552;DHT22;15752;49.560;8.708;2023-04-30T01:29:18;15.40;99.90
28552;DHT22;15752;49.560;8.708;2023-04-30T01:31:47;15.40;99.90
28552;DHT22;15752;49.560;8.708;2023-04-30T01:34:16;15.40;99.90
28552;DHT22;15752;49.560;8.708;2023-04-30T01:37:01;15.40;99.90
28552;DHT22;15752;49.560;8.708;2023-04-30T01:39:52;15.40;99.90
28552;DHT22;15752;49.560;8.708;2023-04-30T01:42:31;15.40;99.90
28552;DHT22;15752;49.560;8.708;2023-04-30T01:45:18;15.40;99.90
28552;DHT22;15752;49.560;8.708;2023-04-30T01:48:00;15.30;99.90
28552;DHT22;15752;49.560;8.708;2023-04-30T01:50:36;15.30;99.90
28552;DHT22;15752;49.560;8.708;2023-04-30T01:53:10;15.30;99.90
28552;DHT22;15752;49.560;8.708;2023-04-30T01:55:43;15.30;99.90
28552;DHT22;15752;49.560;8.708;2023-04-30T01:58:16;15.30;99.90
28552;DHT22;15752;49.560;8.708;2023-04-30T02:00:47;15.30;99.90
28552;DHT22;15752;49.560;8.708;2023-04-30T02:03:19;15.30;99.90
28552;DHT22;15752;49.560;8.708;2023-04-30T02:05:49;15.20;99.90
28552;DHT22;15752;49.560;8.708;2023-04-30T02:08:18;15.20;99.90
28552;DHT22;15752;49.560;8.708;2023-04-30T02:10:47;15.20;99.90
28552;DHT22;15752;49.560;8.708;2023-04-30T02:13:17;15.20;99.90
28552;DHT22;15752;49.560;8.708;2023-04-30T02:15:48;15.20;99.90
28552;DHT22;15752;49.560;8.708;2023-04-30T02:18:18;15.20;99.90
28552;DHT22;15752;49.560;8.708;2023-04-30T02:20:47;15.20;99.90
28552;DHT22;15752;49.560;8.708;2023-04-30T02:23:16;15.20;99.90
28552;DHT22;15752;49.560;8.708;2023-04-30T02:25:45;15.20;99.90
28552;DHT22;15752;49.560;8.708;2023-04-30T02:28:13;15.20;99.90
28552;DHT22;15752;49.560;8.708;2023-04-30T02:30:43;15.20;99.90
28552;DHT22;15752;49.560;8.708;2023-04-30T02:33:13;15.20;99.90
28552;DHT22;15752;49.560;8.708;2023-04-30T02:35:42;15.20;99.90
28552;DHT22;15752;49.560;8.708;2023-04-30T02:38:11;15.20;99.90
28552;DHT22;15752;49.560;8.708;2023-04-30T02:40:40;15.10;99.90
28552;DHT22;15752;49.560;8.708;2023-04-30T02:43:10;15.10;99.90
28552;DHT22;15752;49.560;8.708;2023-04-30T02:45:40;15.10;99.90
28552;DHT22;15752;49.560;8.708;2023-04-30T02:48:14;15.10;99.90
28552;DHT22;15752;49.560;8.708;2023-04-30T02:50:47;15.10;99.90
28552;DHT22;15752;49.560;8.708;2023-04-30T02:53:18;15.10;99.90
28552;DHT22;15752;49.560;8.708;2023-04-30T02:55:48;15.10;99.90
28552;DHT22;15752;49.560;8.708;2023-04-30T02:58:17;15.10;99.90
28552;DHT22;15752;49.560;8.708;2023-04-30T03:00:46;15.10;99.90
28552;DHT22;15752;49.560;8.708;2023-04-30T03:03:16;15.10;99.90
28552;DHT22;15752;49.560;8.708;2023-04-30T03:05:46;15.10;99.90
28552;DHT22;15752;49.560;8.708;2023-04-30T03:08:16;15.10;99.90
28552;DHT22;15752;49.560;8.708;2023-04-30T03:10:45;15.10;99.90
28552;DHT22;15752;49.560;8.708;2023-04-30T03:13:14;15.10;99.90
28552;DHT22;15752;49.560;8.708;2023-04-30T03:15:44;15.10;99.90
28552;DHT22;15752;49.560;8.708;2023-04-30T03:18:12;15.10;99.90
28552;DHT22;15752;49.560;8.708;2023-04-30T03:20:42;15.10;99.90
28552;DHT22;15752;49.560;8.708;2023-04-30T03:23:12;15.00;99.90
28552;DHT22;15752;49.560;8.708;2023-04-30T03:25:44;14.90;99.90
28552;DHT22;15752;49.560;8.708;2023-04-30T03:28:14;15.00;99.90
28552;DHT22;15752;49.560;8.708;2023-04-30T03:30:47;15.00;99.90
28552;DHT22;15752;49.560;8.708;2023-04-30T03:33:16;15.00;99.90
28552;DHT22;15752;49.560;8.708;2023-04-30T03:35:46;15.00;99.90
28552;DHT22;15752;49.560;8.708;2023-04-30T03:38:16;15.00;99.90
28552;DHT22;15752;49.560;8.708;2023-04-30T03:40:45;15.00;99.90
28552;DHT22;15752;49.560;8.708;2023-04-30T03:43:14;15.00;99.90
28552;DHT22;15752;49.560;8.708;2023-04-30T03:45:47;14.90;99.90
28552;DHT22;15752;49.560;8.708;2023-04-30T03:48:16;14.90;99.90
28552;DHT22;15752;49.560;8.708;2023-04-30T03:50:46;14.90;99.90
28552;DHT22;15752;49.560;8.708;2023-04-30T03:53:15;14.90;99.90
28552;DHT22;15752;49.560;8.708;2023-04-30T03:55:44;14.90;99.90
28552;DHT22;15752;49.560;8.708;2023-04-30T03:58:13;14.90;99.90
28552;DHT22;15752;49.560;8.708;2023-04-30T04:00:43;14.90;99.90
28552;DHT22;15752;49.560;8.708;2023-04-30T04:03:14;14.90;99.90
28552;DHT22;15752;49.560;8.708;2023-04-30T04:05:43;14.90;99.90
28552;DHT22;15752;49.560;8.708;2023-04-30T04:08:13;14.90;99.90
28552;DHT22;15752;49.560;8.708;2023-04-30T04:10:43;14.90;99.90
28552;DHT22;15752;49.560;8.708;2023-04-30T04:13:14;14.80;99.90
28552;DHT22;15752;49.560;8.708;2023-04-30T04:15:44;14.80;99.90
28552;DHT22;15752;49.560;8.708;2023-04-30T04:18:12;14.80;99.90
28552;DHT22;15752;49.560;8.708;2023-04-30T04:20:42;14.80;99.90
28552;DHT22;15752;49.560;8.708;2023-04-30T04:23:16;14.80;99.90
28552;DHT22;15752;49.560;8.708;2023-04-30T04:25:45;14.80;99.90
28552;DHT22;15752;49.560;8.708;2023-04-30T04:28:16;14.80;99.90
28552;DHT22;15752;49.560;8.708;2023-04-30T04:30:45;14.80;99.90
28552;DHT22;15752;49.560;8.708;2023-04-30T04:33:13;14.70;99.90
28552;DHT22;15752;49.560;8.708;2023-04-30T04:35:43;14.70;99.90
28552;DHT22;15752;49.560;8.708;2023-04-30T04:38:13;14.70;99.90
28552;DHT22;15752;49.560;8.708;2023-04-30T04:40:50;14.70;99.90
28552;DHT22;15752;49.560;8.708;2023-04-30T04:43:19;14.70;99.90
28552;DHT22;15752;49.560;8.708;2023-04-30T04:45:48;14.70;99.90
28552;DHT22;15752;49.560;8.708;2023-04-30T04:48:18;14.70;99.90
28552;DHT22;15752;49.560;8.708;2023-04-30T04:50:46;14.70;99.90
28552;DHT22;15752;49.560;8.708;2023-04-30T04:53:16;14.70;99.90
28552;DHT22;15752;49.560;8.708;2023-04-30T04:55:45;14.70;99.90
28552;DHT22;15752;49.560;8.708;2023-04-30T04:58:13;14.70;99.90
28552;DHT22;15752;49.560;8.708;2023-04-30T05:00:42;14.70;99.90
28552;DHT22;15752;49.560;8.708;2023-04-30T05:03:11;14.70;99.90
28552;DHT22;15752;49.560;8.708;2023-04-30T05:05:40;14.70;99.90
28552;DHT22;15752;49.560;8.708;2023-04-30T05:08:09;14.70;99.90
28552;DHT22;15752;49.560;8.708;2023-04-30T05:10:39;14.70;99.90
28552;DHT22;15752;49.560;8.708;2023-04-30T05:13:07;14.60;99.90
28552;DHT22;15752;49.560;8.708;2023-04-30T05:15:35;14.70;99.90
28552;DHT22;15752;49.560;8.708;2023-04-30T05:18:04;14.70;99.90
28552;DHT22;15752;49.560;8.708;2023-04-30T05:20:32;14.70;99.90
28552;DHT22;15752;49.560;8.708;2023-04-30T05:23:01;14.70;99.90
28552;DHT22;15752;49.560;8.708;2023-04-30T05:25:29;14.60;99.90
28552;DHT22;15752;49.560;8.708;2023-04-30T05:27:59;14.60;99.90
28552;DHT22;15752;49.560;8.708;2023-04-30T05:30:28;14.60;99.90
28552;DHT22;15752;49.560;8.708;2023-04-30T05:32:56;14.60;99.90
28552;DHT22;15752;49.560;8.708;2023-04-30T05:35:25;14.60;99.90
28552;DHT22;15752;49.560;8.708;2023-04-30T05:37:53;14.60;99.90
28552;DHT22;15752;49.560;8.708;2023-04-30T05:40:23;14.60;99.90
28552;DHT22;15752;49.560;8.708;2023-04-30T05:42:51;14.60;99.90
28552;DHT22;15752;49.560;8.708;2023-04-30T05:45:21;14.60;99.90
28552;DHT22;15752;49.560;8.708;2023-04-30T05:47:49;14.60;99.90
28552;DHT22;15752;49.560;8.708;2023-04-30T05:50:17;14.60;99.90
28552;DHT22;15752;49.560;8.708;2023-04-30T05:52:46;14.60;99.90
28552;DHT22;15752;49.560;8.708;2023-04-30T05:55:14;14.60;99.90
28552;DHT22;15752;49.560;8.708;2023-04-30T05:57:43;14.60;99.90
28552;DHT22;15752;49.560;8.708;2023-04-30T06:00:12;14.60;99.90
28552;DHT22;15752;49.560;8.708;2023-04-30T06:02:43;14.60;99.90
28552;DHT22;15752;49.560;8.708;2023-04-30T06:05:11;14.70;99.90
28552;DHT22;15752;49.560;8.708;2023-04-30T06:07:42;14.70;99.90
28552;DHT22;15752;49.560;8.708;2023-04-30T06:10:10;14.70;99.90
28552;DHT22;15752;49.560;8.708;2023-04-30T06:12:39;14.70;99.90
28552;DHT22;15752;49.560;8.708;2023-04-30T06:15:08;14.80;99.90
28552;DHT22;15752;49.560;8.708;2023-04-30T06:17:36;14.80;99.90
28552;DHT22;15752;49.560;8.708;2023-04-30T06:20:07;14.80;99.90
28552;DHT22;15752;49.560;8.708;2023-04-30T06:22:36;14.90;99.90
28552;DHT22;15752;49.560;8.708;2023-04-30T06:25:07;14.90;99.90
28552;DHT22;15752;49.560;8.708;2023-04-30T06:27:36;14.90;99.90
28552;DHT22;15752;49.560;8.708;2023-04-30T06:30:06;15.00;99.90
28552;DHT22;15752;49.560;8.708;2023-04-30T06:32:36;15.00;99.90
28552;DHT22;15752;49.560;8.708;2023-04-30T06:35:06;15.00;99.90
28552;DHT22;15752;49.560;8.708;2023-04-30T06:37:35;15.10;99.90
28552;DHT22;15752;49.560;8.708;2023-04-30T06:40:05;15.10;99.90
28552;DHT22;15752;49.560;8.708;2023-04-30T06:42:34;15.10;99.90
28552;DHT22;15752;49.560;8.708;2023-04-30T06:45:03;15.20;99.90
28552;DHT22;15752;49.560;8.708;2023-04-30T06:47:34;15.20;99.90
28552;DHT22;15752;49.560;8.708;2023-04-30T06:50:06;15.20;99.90
28552;DHT22;15752;49.560;8.708;2023-04-30T06:52:35;15.30;99.90
28552;DHT22;15752;49.560;8.708;2023-04-30T06:55:03;15.30;99.90
28552;DHT22;15752;49.560;8.708;2023-04-30T06:57:32;15.40;99.90
28552;DHT22;15752;49.560;8.708;2023-04-30T07:00:04;15.40;99.90
28552;DHT22;15752;49.560;8.708;2023-04-30T07:02:33;15.40;99.90
28552;DHT22;15752;49.560;8.708;2023-04-30T07:05:03;15.50;99.60
28552;DHT22;15752;49.560;8.708;2023-04-30T07:07:34;15.50;99.70
28552;DHT22;15752;49.560;8.708;2023-04-30T07:10:03;15.50;99.50
28552;DHT22;15752;49.560;8.708;2023-04-30T07:12:37;15.60;99.70
28552;DHT22;15752;49.560;8.708;2023-04-30T07:15:07;15.60;99.70
28552;DHT22;15752;49.560;8.708;2023-04-30T07:17:35;15.60;99.90
28552;DHT22;15752;49.560;8.708;2023-04-30T07:20:05;15.70;99.50
28552;DHT22;15752;49.560;8.708;2023-04-30T07:22:36;15.70;99.90
28552;DHT22;15752;49.560;8.708;2023-04-30T07:25:05;15.70;99.30
28552;DHT22;15752;49.560;8.708;2023-04-30T07:27:36;15.80;99.50
28552;DHT22;15752;49.560;8.708;2023-04-30T07:30:05;15.80;99.40
28552;DHT22;15752;49.560;8.708;2023-04-30T07:32:36;15.80;99.40
28552;DHT22;15752;49.560;8.708;2023-04-30T07:35:07;15.90;99.50
28552;DHT22;15752;49.560;8.708;2023-04-30T07:37:38;15.90;99.30
28552;DHT22;15752;49.560;8.708;2023-04-30T07:40:08;16.00;99.20
28552;DHT22;15752;49.560;8.708;2023-04-30T07:42:51;16.00;99.20
28552;DHT22;15752;49.560;8.708;2023-04-30T07:45:20;16.00;99.00
28552;DHT22;15752;49.560;8.708;2023-04-30T07:47:48;16.10;99.00
28552;DHT22;15752;49.560;8.708;2023-04-30T07:50:19;16.10;99.00
28552;DHT22;15752;49.560;8.708;2023-04-30T07:52:49;16.20;98.80
28552;DHT22;15752;49.560;8.708;2023-04-30T07:55:18;16.00;98.70
28552;DHT22;15752;49.560;8.708;2023-04-30T07:57:47;16.20;98.90
28552;DHT22;15752;49.560;8.708;2023-04-30T08:00:16;16.20;98.70
28552;DHT22;15752;49.560;8.708;2023-04-30T08:02:44;16.30;98.60
28552;DHT22;15752;49.560;8.708;2023-04-30T08:05:14;16.30;98.60
28552;DHT22;15752;49.560;8.708;2023-04-30T08:07:43;16.40;98.60
28552;DHT22;15752;49.560;8.708;2023-04-30T08:10:13;16.40;98.50
28552;DHT22;15752;49.560;8.708;2023-04-30T08:12:44;16.50;98.40
28552;DHT22;15752;49.560;8.708;2023-04-30T08:15:12;16.60;98.40
28552;DHT22;15752;49.560;8.708;2023-04-30T08:17:41;16.60;98.30
28552;DHT22;15752;49.560;8.708;2023-04-30T08:20:11;16.70;98.20
28552;DHT22;15752;49.560;8.708;2023-04-30T08:22:40;16.70;98.30
28552;DHT22;15752;49.560;8.708;2023-04-30T08:25:10;16.80;98.20
28552;DHT22;15752;49.560;8.708;2023-04-30T08:27:40;16.80;97.90
28552;DHT22;15752;49.560;8.708;2023-04-30T08:30:09;16.90;98.00
28552;DHT22;15752;49.560;8.708;2023-04-30T08:32:38;17.00;98.10
28552;DHT22;15752;49.560;8.708;2023-04-30T08:35:08;17.00;98.00
28552;DHT22;15752;49.560;8.708;2023-04-30T08:37:37;17.10;98.20
28552;DHT22;15752;49.560;8.708;2023-04-30T08:40:07;17.20;97.90
28552;DHT22;15752;49.560;8.708;2023-04-30T08:42:43;17.30;98.00
28552;DHT22;15752;49.560;8.708;2023-04-30T08:45:14;17.30;97.60
28552;DHT22;15752;49.560;8.708;2023-04-30T08:47:44;17.40;97.70
28552;DHT22;15752;49.560;8.708;2023-04-30T08:50:13;17.40;97.70
28552;DHT22;15752;49.560;8.708;2023-04-30T08:52:42;17.50;97.70
28552;DHT22;15752;49.560;8.708;2023-04-30T08:55:11;17.60;97.40
28552;DHT22;15752;49.560;8.708;2023-04-30T08:57:42;17.60;97.40
28552;DHT22;15752;49.560;8.708;2023-04-30T09:00:14;17.70;96.90
28552;DHT22;15752;49.560;8.708;2023-04-30T09:02:43;17.70;96.70
28552;DHT22;15752;49.560;8.708;2023-04-30T09:05:13;17.70;96.80
28552;DHT22;15752;49.560;8.708;2023-04-30T09:07:44;17.80;96.80
28552;DHT22;15752;49.560;8.708;2023-04-30T09:10:16;17.80;96.80
28552;DHT22;15752;49.560;8.708;2023-04-30T09:12:59;17.80;96.80
28552;DHT22;15752;49.560;8.708;2023-04-30T09:15:28;17.90;96.50
28552;DHT22;15752;49.560;8.708;2023-04-30T09:18:08;17.90;96.70
28552;DHT22;15752;49.560;8.708;2023-04-30T09:20:54;17.90;96.50
28552;DHT22;15752;49.560;8.708;2023-04-30T09:23:24;17.90;96.00
28552;DHT22;15752;49.560;8.708;2023-04-30T09:25:53;17.90;96.10
28552;DHT22;15752;49.560;8.708;2023-04-30T09:28:24;17.90;96.00
28552;DHT22;15752;49.560;8.708;2023-04-30T09:30:56;17.90;95.70
28552;DHT22;15752;49.560;8.708;2023-04-30T09:33:25;17.90;96.10
28552;DHT22;15752;49.560;8.708;2023-04-30T09:35:54;18.00;96.10
28552;DHT22;15752;49.560;8.708;2023-04-30T09:38:27;18.00;96.00
28552;DHT22;15752;49.560;8.708;2023-04-30T09:40:58;18.00;95.70
28552;DHT22;15752;49.560;8.708;2023-04-30T09:43:30;18.00;95.90
28552;DHT22;15752;49.560;8.708;2023-04-30T09:45:59;18.00;95.90
28552;DHT22;15752;49.560;8.708;2023-04-30T09:48:28;18.00;96.10
28552;DHT22;15752;49.560;8.708;2023-04-30T09:50:57;18.10;95.90
28552;DHT22;15752;49.560;8.708;2023-04-30T09:53:26;18.10;95.90
28552;DHT22;15752;49.560;8.708;2023-04-30T09:55:57;18.10;95.90
28552;DHT22;15752;49.560;8.708;2023-04-30T09:58:28;18.10;95.50
28552;DHT22;15752;49.560;8.708;2023-04-30T10:01:09;18.10;95.70
28552;DHT22;15752;49.560;8.708;2023-04-30T10:03:39;18.10;95.70
28552;DHT22;15752;49.560;8.708;2023-04-30T10:06:11;18.20;95.50
28552;DHT22;15752;49.560;8.708;2023-04-30T10:08:50;18.20;95.60
28552;DHT22;15752;49.560;8.708;2023-04-30T10:11:27;18.20;95.20
28552;DHT22;15752;49.560;8.708;2023-04-30T10:13:59;18.20;95.10
28552;DHT22;15752;49.560;8.708;2023-04-30T10:16:36;18.20;95.00
28552;DHT22;15752;49.560;8.708;2023-04-30T10:19:13;18.20;95.10
28552;DHT22;15752;49.560;8.708;2023-04-30T10:21:45;18.20;95.00
28552;DHT22;15752;49.560;8.708;2023-04-30T10:24:15;18.30;95.20
28552;DHT22;15752;49.560;8.708;2023-04-30T10:26:46;18.30;95.20
28552;DHT22;15752;49.560;8.708;2023-04-30T10:29:17;18.30;95.00
28552;DHT22;15752;49.560;8.708;2023-04-30T10:31:47;18.30;94.80
28552;DHT22;15752;49.560;8.708;2023-04-30T10:34:21;18.30;95.00
28552;DHT22;15752;49.560;8.708;2023-04-30T10:36:58;18.30;94.70
28552;DHT22;15752;49.560;8.708;2023-04-30T10:39:28;18.30;94.60
28552;DHT22;15752;49.560;8.708;2023-04-30T10:42:01;18.30;94.70
28552;DHT22;15752;49.560;8.708;2023-04-30T10:44:33;18.30;94.40
28552;DHT22;15752;49.560;8.708;2023-04-30T10:47:04;18.40;94.80
28552;DHT22;15752;49.560;8.708;2023-04-30T10:49:33;18.40;94.80
28552;DHT22;15752;49.560;8.708;2023-04-30T10:52:03;18.50;94.70
28552;DHT22;15752;49.560;8.708;2023-04-30T10:54:34;18.50;94.40
28552;DHT22;15752;49.560;8.708;2023-04-30T10:57:10;18.50;94.60
28552;DHT22;15752;49.560;8.708;2023-04-30T10:59:51;18.50;94.20
28552;DHT22;15752;49.560;8.708;2023-04-30T11:02:21;18.60;94.40
28552;DHT22;15752;49.560;8.708;2023-04-30T11:05:09;18.60;94.10
28552;DHT22;15752;49.560;8.708;2023-04-30T11:07:46;18.70;93.80
28552;DHT22;15752;49.560;8.708;2023-04-30T11:10:19;18.70;93.90
28552;DHT22;15752;49.560;8.708;2023-04-30T11:12:49;18.80;93.90
28552;DHT22;15752;49.560;8.708;2023-04-30T11:15:23;18.80;93.70
28552;DHT22;15752;49.560;8.708;2023-04-30T11:17:56;18.80;93.50
28552;DHT22;15752;49.560;8.708;2023-04-30T11:20:26;18.90;93.70
28552;DHT22;15752;49.560;8.708;2023-04-30T11:23:08;18.90;93.80
28552;DHT22;15752;49.560;8.708;2023-04-30T11:25:42;19.00;93.50
28552;DHT22;15752;49.560;8.708;2023-04-30T11:28:15;19.00;93.10
28552;DHT22;15752;49.560;8.708;2023-04-30T11:30:53;19.10;93.40
28552;DHT22;15752;49.560;8.708;2023-04-30T11:33:23;19.10;93.50
28552;DHT22;15752;49.560;8.708;2023-04-30T11:35:53;19.20;93.50
28552;DHT22;15752;49.560;8.708;2023-04-30T11:38:27;19.20;93.00
28552;DHT22;15752;49.560;8.708;2023-04-30T11:40:56;19.20;92.80
28552;DHT22;15752;49.560;8.708;2023-04-30T11:43:27;19.20;92.70
28552;DHT22;15752;49.560;8.708;2023-04-30T11:46:08;19.30;92.90
28552;DHT22;15752;49.560;8.708;2023-04-30T11:48:39;19.30;93.00
28552;DHT22;15752;49.560;8.708;2023-04-30T11:51:15;19.40;93.10
28552;DHT22;15752;49.560;8.708;2023-04-30T11:53:45;19.50;92.60
28552;DHT22;15752;49.560;8.708;2023-04-30T11:56:17;19.50;92.80
28552;DHT22;15752;49.560;8.708;2023-04-30T11:58:48;19.70;92.10
28552;DHT22;15752;49.560;8.708;2023-04-30T12:01:18;19.70;92.50
28552;DHT22;15752;49.560;8.708;2023-04-30T12:03:49;19.80;91.90
28552;DHT22;15752;49.560;8.708;2023-04-30T12:06:23;19.80;91.80
28552;DHT22;15752;49.560;8.708;2023-04-30T12:08:54;19.90;91.70
28552;DHT22;15752;49.560;8.708;2023-04-30T12:11:24;19.90;91.90
28552;DHT22;15752;49.560;8.708;2023-04-30T12:14:00;19.90;91.70
28552;DHT22;15752;49.560;8.708;2023-04-30T12:16:40;20.00;91.90
28552;DHT22;15752;49.560;8.708;2023-04-30T12:19:12;20.00;91.20
28552;DHT22;15752;49.560;8.708;2023-04-30T12:21:41;20.10;91.20
28552;DHT22;15752;49.560;8.708;2023-04-30T12:24:12;20.10;91.00
28552;DHT22;15752;49.560;8.708;2023-04-30T12:26:42;20.10;91.10
28552;DHT22;15752;49.560;8.708;2023-04-30T12:29:14;20.10;91.30
28552;DHT22;15752;49.560;8.708;2023-04-30T12:31:48;20.10;90.90
28552;DHT22;15752;49.560;8.708;2023-04-30T12:34:17;20.10;90.30
28552;DHT22;15752;49.560;8.708;2023-04-30T12:36:46;20.10;90.80
28552;DHT22;15752;49.560;8.708;2023-04-30T12:39:15;20.10;90.40
28552;DHT22;15752;49.560;8.708;2023-04-30T12:41:45;20.10;90.40
28552;DHT22;15752;49.560;8.708;2023-04-30T12:44:19;20.10;90.00
28552;DHT22;15752;49.560;8.708;2023-04-30T12:46:52;20.10;90.40
28552;DHT22;15752;49.560;8.708;2023-04-30T12:49:24;20.10;90.30
28552;DHT22;15752;49.560;8.708;2023-04-30T12:51:58;20.10;90.20
28552;DHT22;15752;49.560;8.708;2023-04-30T12:54:29;20.10;89.60
28552;DHT22;15752;49.560;8.708;2023-04-30T12:57:00;20.10;90.10
28552;DHT22;15752;49.560;8.708;2023-04-30T12:59:30;20.10;90.20
28552;DHT22;15752;49.560;8.708;2023-04-30T13:02:08;20.20;90.30
28552;DHT22;15752;49.560;8.708;2023-04-30T13:04:39;20.20;89.00
28552;DHT22;15752;49.560;8.708;2023-04-30T13:07:10;20.20;89.80
28552;DHT22;15752;49.560;8.708;2023-04-30T13:09:38;20.30;89.80
28552;DHT22;15752;49.560;8.708;2023-04-30T13:12:07;20.30;89.30
28552;DHT22;15752;49.560;8.708;2023-04-30T13:14:38;20.40;89.30
28552;DHT22;15752;49.560;8.708;2023-04-30T13:17:08;20.40;89.30
28552;DHT22;15752;49.560;8.708;2023-04-30T13:19:39;20.40;89.30
28552;DHT22;15752;49.560;8.708;2023-04-30T13:22:08;20.50;89.00
28552;DHT22;15752;49.560;8.708;2023-04-30T13:24:38;20.50;88.20
28552;DHT22;15752;49.560;8.708;2023-04-30T13:27:06;20.50;88.20
28552;DHT22;15752;49.560;8.708;2023-04-30T13:29:35;20.60;87.70
28552;DHT22;15752;49.560;8.708;2023-04-30T13:32:03;20.60;88.00
28552;DHT22;15752;49.560;8.708;2023-04-30T13:34:33;20.60;88.20
28552;DHT22;15752;49.560;8.708;2023-04-30T13:37:02;20.60;87.90
28552;DHT22;15752;49.560;8.708;2023-04-30T13:39:30;20.70;87.70
28552;DHT22;15752;49.560;8.708;2023-04-30T13:41:59;20.70;86.70
28552;DHT22;15752;49.560;8.708;2023-04-30T13:44:28;20.70;86.10
28552;DHT22;15752;49.560;8.708;2023-04-30T13:46:58;20.70;86.30
28552;DHT22;15752;49.560;8.708;2023-04-30T13:49:30;20.60;86.10
28552;DHT22;15752;49.560;8.708;2023-04-30T13:52:03;20.60;85.40
28552;DHT22;15752;49.560;8.708;2023-04-30T13:54:33;20.60;85.00
28552;DHT22;15752;49.560;8.708;2023-04-30T13:57:03;20.60;85.70
28552;DHT22;15752;49.560;8.708;2023-04-30T13:59:32;20.60;85.70
28552;DHT22;15752;49.560;8.708;2023-04-30T14:02:01;20.60;85.50
28552;DHT22;15752;49.560;8.708;2023-04-30T14:04:29;20.60;86.80
28552;DHT22;15752;49.560;8.708;2023-04-30T14:06:58;20.60;86.10
28552;DHT22;15752;49.560;8.708;2023-04-30T14:09:30;20.70;84.90
28552;DHT22;15752;49.560;8.708;2023-04-30T14:11:58;20.70;84.40
28552;DHT22;15752;49.560;8.708;2023-04-30T14:14:27;20.70;84.60
28552;DHT22;15752;49.560;8.708;2023-04-30T14:16:56;20.70;84.70
28552;DHT22;15752;49.560;8.708;2023-04-30T14:19:26;20.70;84.90
28552;DHT22;15752;49.560;8.708;2023-04-30T14:21:54;20.60;84.40
28552;DHT22;15752;49.560;8.708;2023-04-30T14:24:23;20.60;84.30
28552;DHT22;15752;49.560;8.708;2023-04-30T14:26:54;20.60;83.40
28552;DHT22;15752;49.560;8.708;2023-04-30T14:29:22;20.60;82.70
28552;DHT22;15752;49.560;8.708;2023-04-30T14:31:53;20.60;84.30
28552;DHT22;15752;49.560;8.708;2023-04-30T14:34:25;20.60;83.40
28552;DHT22;15752;49.560;8.708;2023-04-30T14:36:53;20.60;84.60
28552;DHT22;15752;49.560;8.708;2023-04-30T14:39:25;20.70;84.20
28552;DHT22;15752;49.560;8.708;2023-04-30T14:41:59;20.70;83.40
28552;DHT22;15752;49.560;8.708;2023-04-30T14:44:30;20.80;83.00
28552;DHT22;15752;49.560;8.708;2023-04-30T14:46:59;20.80;83.80
28552;DHT22;15752;49.560;8.708;2023-04-30T14:49:27;20.90;83.60
28552;DHT22;15752;49.560;8.708;2023-04-30T14:51:56;20.90;84.10
28552;DHT22;15752;49.560;8.708;2023-04-30T14:54:27;21.00;82.70
28552;DHT22;15752;49.560;8.708;2023-04-30T14:57:13;21.00;82.80
28552;DHT22;15752;49.560;8.708;2023-04-30T14:59:55;21.10;82.90
28552;DHT22;15752;49.560;8.708;2023-04-30T15:02:29;21.10;82.80
28552;DHT22;15752;49.560;8.708;2023-04-30T15:05:05;21.10;82.60
28552;DHT22;15752;49.560;8.708;2023-04-30T15:07:35;21.10;82.10
28552;DHT22;15752;49.560;8.708;2023-04-30T15:10:05;21.10;82.10
28552;DHT22;15752;49.560;8.708;2023-04-30T15:12:46;21.10;81.40
28552;DHT22;15752;49.560;8.708;2023-04-30T15:15:15;21.10;80.40
28552;DHT22;15752;49.560;8.708;2023-04-30T15:17:45;21.00;81.70
28552;DHT22;15752;49.560;8.708;2023-04-30T15:20:13;20.90;81.50
28552;DHT22;15752;49.560;8.708;2023-04-30T15:22:42;21.00;80.50
28552;DHT22;15752;49.560;8.708;2023-04-30T15:25:14;20.90;79.90
28552;DHT22;15752;49.560;8.708;2023-04-30T15:27:48;21.00;79.50
28552;DHT22;15752;49.560;8.708;2023-04-30T15:30:17;21.00;79.80
28552;DHT22;15752;49.560;8.708;2023-04-30T15:32:47;21.00;80.40
28552;DHT22;15752;49.560;8.708;2023-04-30T15:35:16;21.00;80.00
28552;DHT22;15752;49.560;8.708;2023-04-30T15:37:46;21.00;79.70
28552;DHT22;15752;49.560;8.708;2023-04-30T15:40:15;21.00;79.60
28552;DHT22;15752;49.560;8.708;2023-04-30T15:42:43;21.10;80.70
28552;DHT22;15752;49.560;8.708;2023-04-30T15:45:13;21.00;79.60
28552;DHT22;15752;49.560;8.708;2023-04-30T15:47:42;21.00;79.10
28552;DHT22;15752;49.560;8.708;2023-04-30T15:50:11;21.10;79.20
28552;DHT22;15752;49.560;8.708;2023-04-30T15:52:42;21.00;78.80